首页
METAR-TAF:

METAR-TAF

机场 :

Wallops Flight Facility (NASA)

瓦勒普斯岛, 弗吉尼亚州, 美国

纬度: 37-56-26N, 经度: 075-27-47W, 海拔: 12米

当前天气观测

该预报发布于19分钟前的14:54 UTC
风速9节,风向
温度 28°C
湿度 89%
气压 1018 hPa
能見度: 16.1公里
少量云层高于1300英尺

METAR: KWAL 121454Z AUTO 19009KT 10SM FEW013 28/26 A3005 RMK AO2 SLP172 T02830256 $

时间: 11:13 (15:13 UTC)


TAF: 丢失

超过4000个机场的气象观测和天气预报(METAR&TAF报告)。

可查询的气象台以黄色和红色小点在地图上表示。

将鼠标移到小点上方,可查看气象台名称。

然后点击查看天气观测和预报。

如需切换地图:点击带黑十字的绿色按钮放大地图;点击带横线的绿色按钮缩小地图;或者点击绿色箭头查看邻近地区的地图。


METAR-TAF: